Pagrindinis puslapis
METAR-TAF:

METAR-TAF

Oro uostai :

Kopenhaga, Danija

platuma: 55-37N, ilguma: 012-39E, Aukštis: 5 m

Dabartinis oras

Ataskaita buvo paskelbta 39 minutes, ne 09:20 UTC
Vėjas 13 kt iš Pietryčių
Temperatūra 16°C
Drėgmė 68%
Slėgis 1013 hPa
Matomumas 10 km arba daugiau

METAR: EKCH 140920Z AUTO 13013KT 9999 FEW090/// 16/10 Q1013 NOSIG

Laikas: 11:59 (09:59 UTC)

Prognozė

Ataskaita buvo paskelbta 3 valandos ir 37 minutes, ne 06:22 UTC
Prognozė galioja nuo 14 metu 06 UTC su 15 metu 06 UTC
Vėjas 15 kt iš Pietryčių
Matomumas 10 km arba daugiau
nėra debesų žemiau 1500 m ir nėra kamuolinių lietaus debesų
Laikinai
nuo 14 metu 06 UTC su 14 metu 12 UTC
Mažai debesys ne aukštis 3000 ft, aukštai iškilę kamuoliniai debesys.
Laikinai
nuo 14 metu 12 UTC su 14 metu 17 UTC
Vėjas 20 kt iš Pietryčių su gūsio iki 30 kt

TAF: EKCH 140622Z 1406/1506 14015KT CAVOK TEMPO 1406/1412 FEW030TCU TEMPO 1412/1417 14020G30KT

Orai ataskaitas ir orų prognozės (METAR, TAF).

turimą stotys yra geltonos ir raudonos taškus žemėlapyje.

Perkelti pele per norėdami pamatyti stoties vardą.

Tada spustelėkite, norėdami matyti oro stebėjimo ir prognozės.

Norėdami pakeisti žemėlapį: spustelėkite ant žalios mygtukų su juodo kryžiaus žemyn,; žalią mygtuką su brūkšneliu, jei norite nutolinti; arba žalių rodyklių gretimoms žemėlapius.


METAR-TAF: